Аэропорт: Шпаковское. Ставрополь

ICAO: URMT

METAR:
2021-01-19 11:00:00
URMT 191100Z 30005MPS 6000 FEW025 M05/M08 Q1016 R25/010060 NOSIG RMK QFE723
METAR:
2021-01-19 08:00:00
TAF URMT 190800Z 1909/1918 26003G08MPS 4000 BR BKN011 BKN020CB TEMPO 1909/1918 31005G10MPS 2100 -SHSN BR BKN005 BKN020CB